createdAt,value
2018-01-03T17:10:02.640Z,96096.38
2018-01-03T17:12:13.031Z,96090.06
2018-01-03T17:14:23.717Z,96098.50
2018-01-03T17:16:33.779Z,96097.44
2018-01-03T17:18:43.810Z,96118.10
2018-01-03T17:20:54.064Z,96127.95
2018-01-03T17:23:04.231Z,96124.25
2018-01-03T17:25:15.605Z,96134.22
2018-01-03T17:27:25.744Z,96123.55
2018-01-03T17:29:35.861Z,96132.40
2018-01-03T17:31:46.250Z,96135.85
2018-01-03T17:33:57.713Z,96131.64
2018-01-03T17:36:07.882Z,96137.40
2018-01-03T17:38:17.946Z,96132.25
2018-01-03T17:40:28.458Z,96136.13
2018-01-03T17:42:38.765Z,96127.27
2018-01-03T17:44:48.841Z,96121.34
2018-01-03T17:46:59.050Z,96130.75
2018-01-03T17:49:10.052Z,96123.34
2018-01-03T17:51:20.226Z,96116.89
2018-01-03T17:53:30.152Z,96124.67
2018-01-03T17:55:40.383Z,96126.83
2018-01-03T17:57:51.064Z,96115.69
2018-01-03T18:00:01.238Z,96117.04
2018-01-03T18:02:11.657Z,96108.97
2018-01-03T18:04:22.180Z,96112.61
2018-01-03T18:06:32.333Z,96108.58
2018-01-03T18:08:42.707Z,96125.83
2018-01-03T18:10:53.748Z,96127.58
2018-01-03T18:13:03.873Z,96144.16
2018-01-03T18:15:14.577Z,96162.07
2018-01-03T18:17:24.698Z,96169.09
2018-01-03T18:19:34.901Z,96183.42
2018-01-03T18:21:46.138Z,96173.22
2018-01-03T18:23:56.959Z,96167.09
2018-01-03T18:26:07.240Z,96178.12
2018-01-03T18:28:17.348Z,96182.84
2018-01-03T18:30:27.530Z,96166.00
2018-01-03T18:32:37.718Z,96186.45
2018-01-03T18:34:48.813Z,96182.75
2018-01-03T18:36:59.307Z,96185.19
2018-01-03T18:39:09.575Z,96202.00
2018-01-03T18:41:19.834Z,96204.36
2018-01-03T18:43:30.832Z,96213.04
2018-01-03T18:45:44.484Z,96225.45
2018-01-03T18:47:58.069Z,96228.61
2018-01-03T18:50:08.451Z,96230.78
2018-01-03T18:52:18.870Z,96233.69
2018-01-03T18:54:29.181Z,96240.30
2018-01-03T18:56:39.256Z,96261.00
2018-01-03T18:58:49.347Z,96282.12
2018-01-03T19:00:59.984Z,96276.91
2018-01-03T19:03:10.847Z,96278.50
2018-01-03T19:05:21.066Z,96278.94
2018-01-03T19:07:31.480Z,96273.30
2018-01-03T19:09:42.125Z,96263.48
2018-01-03T19:11:52.717Z,96270.20
2018-01-03T19:14:03.495Z,96267.25
2018-01-03T19:16:13.820Z,96267.97
2018-01-03T19:18:25.117Z,96280.50
2018-01-03T19:20:35.199Z,96283.09
2018-01-03T19:22:45.189Z,96267.00
2018-01-03T19:24:55.207Z,96272.02
2018-01-03T19:27:05.319Z,96271.50
2018-01-03T19:29:15.478Z,96273.44
2018-01-03T19:31:25.600Z,96278.06
2018-01-03T19:33:39.074Z,96281.60
2018-01-03T19:35:52.937Z,96283.77
2018-01-03T19:38:03.080Z,96281.27
2018-01-03T19:40:13.362Z,96268.00
2018-01-03T19:42:23.461Z,96255.53
2018-01-03T19:44:33.761Z,96269.84
2018-01-03T19:46:44.106Z,96264.91
2018-01-03T19:48:54.326Z,96270.56
2018-01-03T19:51:04.594Z,96276.79
2018-01-03T19:53:15.283Z,96289.31
2018-01-03T19:55:25.585Z,96283.03
2018-01-03T19:57:35.966Z,96283.88
2018-01-03T19:59:46.475Z,96292.62
2018-01-03T20:01:56.946Z,96292.27
2018-01-03T20:04:08.144Z,96286.22
2018-01-03T20:06:18.356Z,96285.72
2018-01-03T20:08:28.580Z,96272.16
2018-01-03T20:10:39.693Z,96268.97
2018-01-03T20:12:50.126Z,96273.65
2018-01-03T20:15:00.487Z,96284.31
2018-01-03T20:17:10.833Z,96292.65
2018-01-03T20:19:21.374Z,96283.69
2018-01-03T20:21:31.381Z,96297.27
2018-01-03T20:23:42.103Z,96297.17
2018-01-03T20:25:52.328Z,96302.42
2018-01-03T20:28:02.341Z,96314.69
2018-01-03T20:30:12.464Z,96312.27
2018-01-03T20:32:22.652Z,96306.23
2018-01-03T20:34:32.888Z,96307.34
2018-01-03T20:36:43.795Z,96312.59
2018-01-03T20:38:54.858Z,96315.27
2018-01-03T20:41:05.351Z,96319.20
2018-01-03T20:43:15.455Z,96319.34
2018-01-03T20:45:25.862Z,96306.05
2018-01-03T20:47:36.117Z,96302.17
2018-01-03T20:49:46.423Z,96301.52
2018-01-03T20:51:57.013Z,96313.34
2018-01-03T20:54:07.006Z,96332.30
2018-01-03T20:56:17.130Z,96333.41
2018-01-03T20:58:28.655Z,96341.06
2018-01-03T21:00:38.817Z,96346.71
2018-01-03T21:02:48.992Z,96356.66
2018-01-03T21:05:02.009Z,96359.91
2018-01-03T21:07:12.164Z,96342.72
2018-01-03T21:09:22.790Z,96334.25
2018-01-03T21:11:33.293Z,96331.30
2018-01-03T21:13:43.667Z,96334.55
2018-01-03T21:15:54.530Z,96342.62
2018-01-03T21:18:04.805Z,96345.58
2018-01-03T21:20:15.108Z,96357.81
2018-01-03T21:22:25.260Z,96359.31
2018-01-03T21:24:35.500Z,96359.05
2018-01-03T21:26:45.687Z,96362.28
2018-01-03T21:28:56.072Z,96365.50
2018-01-03T21:31:06.450Z,96377.20
2018-01-03T21:33:16.495Z,96372.52
2018-01-03T21:35:26.602Z,96374.41
2018-01-03T21:37:36.981Z,96377.23
2018-01-03T21:39:47.015Z,96375.08
2018-01-03T21:41:57.186Z,96374.81
2018-01-03T21:44:07.258Z,96381.16
2018-01-03T21:46:17.382Z,96393.39
2018-01-03T21:48:27.797Z,96405.88
2018-01-03T21:51:03.769Z,96409.64
2018-01-03T21:53:14.004Z,96419.99
2018-01-03T21:55:24.557Z,96423.75
2018-01-03T21:57:34.908Z,96423.35
2018-01-03T21:59:45.199Z,96428.89
2018-01-03T22:01:55.291Z,96426.20
2018-01-03T22:04:05.564Z,96426.61
2018-01-03T22:06:15.741Z,96423.38
2018-01-03T22:08:25.930Z,96424.48
2018-01-03T22:10:36.072Z,96422.58
2018-01-03T22:12:46.141Z,96421.00
2018-01-03T22:14:56.956Z,96432.28
2018-01-03T22:17:07.211Z,96434.43
2018-01-03T22:19:17.261Z,96432.28
2018-01-03T22:21:27.793Z,96432.42
2018-01-03T22:23:38.071Z,96437.16
